createdAt,value
2018-06-01T00:00:38.219Z,15.50
2018-06-01T00:03:06.478Z,15.00
2018-06-01T00:05:34.728Z,18.30
2018-06-01T00:08:03.771Z,16.57
2018-06-01T00:10:32.067Z,19.67
2018-06-01T00:13:00.335Z,16.83
2018-06-01T00:15:28.597Z,16.33
2018-06-01T00:17:56.865Z,19.63
2018-06-01T00:20:25.150Z,17.77
2018-06-01T00:22:53.411Z,16.17
2018-06-01T00:25:21.690Z,19.00
2018-06-01T00:27:50.003Z,22.80
2018-06-01T00:30:18.242Z,19.70
2018-06-01T00:32:46.519Z,17.93
2018-06-01T00:35:14.789Z,18.07
2018-06-01T00:37:43.052Z,20.83
2018-06-01T00:40:11.333Z,22.30
2018-06-01T00:42:40.346Z,20.60
2018-06-01T00:45:08.612Z,24.80
2018-06-01T00:47:36.897Z,23.10
2018-06-01T00:50:05.145Z,22.30
2018-06-01T00:52:33.420Z,26.37
2018-06-01T00:55:14.714Z,22.97
2018-06-01T00:57:43.029Z,20.60
2018-06-01T01:00:11.298Z,24.87
2018-06-01T01:02:39.564Z,23.67
2018-06-01T01:05:07.830Z,22.60
2018-06-01T01:07:36.096Z,25.30
2018-06-01T01:10:04.356Z,25.10
2018-06-01T01:12:33.370Z,22.17
2018-06-01T01:15:01.637Z,22.20
2018-06-01T01:17:30.023Z,19.80
2018-06-01T01:19:58.277Z,34.33
2018-06-01T01:22:27.312Z,26.27
2018-06-01T01:24:55.566Z,20.43
2018-06-01T01:27:23.834Z,23.40
2018-06-01T01:29:52.112Z,23.63
2018-06-01T01:32:20.388Z,24.87
2018-06-01T01:34:48.680Z,19.73
2018-06-01T01:37:22.920Z,18.50
2018-06-01T01:39:51.360Z,23.30
2018-06-01T01:42:19.627Z,25.67
2018-06-01T01:44:48.677Z,21.50
2018-06-01T01:47:16.950Z,23.70
2018-06-01T01:49:45.211Z,21.70
2018-06-01T01:52:13.499Z,21.73
2018-06-01T01:54:41.762Z,22.63
2018-06-01T01:57:10.030Z,18.30
2018-06-01T01:59:38.290Z,20.50
2018-06-01T02:02:06.573Z,18.20
2018-06-01T02:04:34.834Z,18.80
2018-06-01T02:07:03.864Z,21.43
2018-06-01T02:09:32.893Z,23.47
2018-06-01T02:12:01.946Z,18.77
2018-06-01T02:14:30.204Z,20.17
2018-06-01T02:16:58.462Z,20.37
2018-06-01T02:19:26.739Z,19.73
2018-06-01T02:21:55.777Z,22.23
2018-06-01T02:24:24.067Z,20.83
2018-06-01T02:26:52.307Z,20.17
2018-06-01T02:29:20.548Z,21.27
2018-06-01T02:31:49.579Z,23.90
2018-06-01T02:34:17.837Z,22.73
2018-06-01T02:36:46.109Z,20.80
2018-06-01T02:39:15.150Z,22.40
2018-06-01T02:41:43.412Z,22.07
2018-06-01T02:44:11.678Z,21.20
2018-06-01T02:46:39.947Z,25.30
2018-06-01T02:49:08.210Z,23.90
2018-06-01T02:51:36.473Z,25.47
2018-06-01T02:54:04.733Z,20.30
2018-06-01T02:56:33.699Z,19.43
2018-06-01T02:59:01.897Z,19.77
2018-06-01T03:01:30.928Z,20.67
2018-06-01T03:03:59.214Z,23.80
2018-06-01T03:06:38.033Z,23.80
2018-06-01T03:09:06.493Z,26.40
2018-06-01T03:11:35.509Z,25.67
2018-06-01T03:14:03.768Z,21.27
2018-06-01T03:16:32.031Z,29.40
2018-06-01T03:19:01.047Z,23.80
2018-06-01T03:21:29.316Z,21.80
2018-06-01T03:23:57.568Z,20.03
2018-06-01T03:26:26.591Z,20.50
2018-06-01T03:28:54.890Z,19.80
2018-06-01T03:31:23.176Z,18.20
2018-06-01T03:33:51.433Z,23.10
2018-06-01T03:36:19.715Z,17.37
2018-06-01T03:38:47.983Z,23.17
2018-06-01T03:41:16.263Z,29.03
2018-06-01T03:43:44.644Z,22.30
2018-06-01T03:46:12.900Z,28.90
2018-06-01T03:48:41.152Z,17.70
2018-06-01T03:51:10.207Z,23.67
2018-06-01T03:53:38.470Z,18.20
2018-06-01T03:56:06.744Z,20.37
2018-06-01T03:58:35.040Z,20.77
2018-06-01T04:01:03.292Z,21.13
2018-06-01T04:03:32.453Z,20.60
2018-06-01T04:06:00.724Z,16.93
2018-06-01T04:08:30.076Z,20.53
2018-06-01T04:10:58.333Z,24.60
2018-06-01T04:13:26.600Z,28.73
2018-06-01T04:15:54.885Z,23.27
2018-06-01T04:18:23.142Z,25.93
2018-06-01T04:20:52.413Z,19.17
2018-06-01T04:23:20.688Z,19.40
2018-06-01T04:25:49.715Z,24.43
2018-06-01T04:28:18.958Z,24.60
2018-06-01T04:30:47.279Z,26.20
2018-06-01T04:33:16.304Z,26.27
2018-06-01T04:35:44.564Z,24.70
2018-06-01T04:38:12.819Z,24.37
2018-06-01T04:40:41.956Z,33.67
2018-06-01T04:43:10.223Z,26.37
2018-06-01T04:45:38.504Z,31.20
2018-06-01T04:48:06.774Z,25.63
2018-06-01T04:50:35.071Z,22.20
2018-06-01T04:53:03.445Z,20.70
2018-06-01T04:55:31.718Z,22.00
2018-06-01T04:57:59.960Z,9.60
2018-06-01T05:00:28.959Z,11.70
2018-06-01T05:02:57.229Z,12.40
2018-06-01T05:05:26.372Z,10.53
2018-06-01T05:07:54.646Z,11.53
2018-06-01T05:10:22.889Z,13.80
2018-06-01T05:12:51.156Z,13.70
2018-06-01T05:15:20.154Z,11.70
2018-06-01T05:17:48.430Z,22.03
2018-06-01T05:20:16.671Z,10.07
2018-06-01T05:22:44.951Z,18.03
2018-06-01T05:25:13.208Z,10.90
2018-06-01T05:27:41.472Z,8.50
2018-06-01T05:30:09.709Z,10.07
2018-06-01T05:32:37.969Z,13.07
2018-06-01T05:35:07.006Z,10.20
2018-06-01T05:37:36.059Z,13.73
2018-06-01T05:40:05.089Z,15.83
2018-06-01T05:42:33.330Z,14.03
2018-06-01T05:45:01.658Z,14.90
2018-06-01T05:47:30.005Z,13.23
2018-06-01T05:49:58.292Z,13.77
2018-06-01T05:52:26.548Z,19.13
2018-06-01T05:54:54.835Z,18.30
2018-06-01T05:57:23.099Z,13.50
2018-06-01T05:59:51.362Z,18.13
2018-06-01T06:02:20.388Z,15.50
2018-06-01T06:04:48.635Z,15.63
2018-06-01T06:07:16.908Z,15.67
2018-06-01T06:09:45.197Z,18.03
2018-06-01T06:12:13.464Z,14.87
2018-06-01T06:14:41.757Z,20.17
2018-06-01T06:17:10.009Z,17.27
2018-06-01T06:19:39.035Z,15.53
2018-06-01T06:22:07.290Z,12.30
2018-06-01T06:24:35.562Z,16.13
2018-06-01T06:27:04.591Z,16.77
2018-06-01T06:29:32.836Z,19.40
2018-06-01T06:32:01.106Z,16.30
2018-06-01T06:34:29.362Z,17.43
2018-06-01T06:36:58.394Z,18.07
2018-06-01T06:39:26.663Z,19.00
2018-06-01T06:41:54.930Z,16.23
2018-06-01T06:44:23.204Z,24.00
2018-06-01T06:46:52.254Z,18.27
2018-06-01T06:49:20.505Z,20.63
2018-06-01T06:51:48.812Z,21.77
2018-06-01T06:54:17.223Z,27.00
2018-06-01T06:56:45.497Z,20.13
2018-06-01T06:59:14.564Z,18.70
2018-06-01T07:01:43.516Z,19.53
2018-06-01T07:04:11.766Z,25.70
2018-06-01T07:06:40.811Z,19.03
2018-06-01T07:09:09.070Z,23.27
2018-06-01T07:11:37.888Z,21.47
2018-06-01T07:14:06.170Z,23.30
2018-06-01T07:16:34.423Z,15.70
2018-06-01T07:19:02.701Z,16.73
2018-06-01T07:21:30.980Z,13.47
2018-06-01T07:23:59.239Z,12.70
2018-06-01T07:26:27.494Z,14.73
2018-06-01T07:28:55.763Z,16.83
2018-06-01T07:31:24.051Z,12.87
2018-06-01T07:33:52.311Z,15.07
2018-06-01T07:36:20.570Z,11.97
2018-06-01T07:38:49.595Z,11.97
2018-06-01T07:41:17.850Z,12.40
2018-06-01T07:43:46.887Z,14.40
2018-06-01T07:46:15.153Z,14.67
2018-06-01T07:48:43.431Z,12.10
2018-06-01T07:51:11.687Z,14.40
2018-06-01T07:53:39.937Z,8.03
2018-06-01T07:56:08.968Z,8.03
2018-06-01T07:58:37.220Z,7.87
2018-06-01T08:01:06.255Z,8.40
2018-06-01T08:03:34.548Z,9.17
2018-06-01T08:06:03.523Z,8.10
2018-06-01T08:08:31.791Z,7.60
2018-06-01T08:11:00.021Z,5.80
2018-06-01T08:13:29.053Z,6.83
2018-06-01T08:15:57.304Z,9.10
2018-06-01T08:18:27.310Z,6.00
2018-06-01T08:20:56.338Z,6.23
2018-06-01T08:23:24.587Z,6.60
2018-06-01T08:25:53.654Z,5.10
2018-06-01T08:28:21.888Z,9.07
2018-06-01T08:30:50.220Z,6.37
2018-06-01T08:33:19.281Z,8.00
2018-06-01T08:35:47.537Z,5.70
2018-06-01T08:38:15.824Z,6.97
2018-06-01T08:40:44.071Z,6.80
2018-06-01T08:43:13.208Z,6.73
2018-06-01T08:45:41.467Z,11.13
2018-06-01T08:48:09.737Z,8.50
2018-06-01T08:50:38.069Z,5.10
2018-06-01T08:53:07.097Z,9.97
2018-06-01T08:55:35.607Z,8.53
2018-06-01T08:58:03.833Z,8.27
2018-06-01T09:00:32.106Z,11.47
2018-06-01T09:03:01.157Z,6.90
2018-06-01T09:05:29.411Z,5.83
2018-06-01T09:07:57.663Z,9.00
2018-06-01T09:10:26.067Z,7.53
2018-06-01T09:12:54.305Z,6.10
2018-06-01T09:15:23.339Z,6.60
2018-06-01T09:17:51.709Z,10.13
2018-06-01T09:20:20.017Z,6.00
2018-06-01T09:22:48.273Z,8.87
2018-06-01T09:25:16.570Z,9.53
2018-06-01T09:27:44.940Z,9.17
2018-06-01T09:30:13.212Z,9.20
2018-06-01T09:32:41.457Z,7.60
2018-06-01T09:35:09.875Z,12.13
2018-06-01T09:37:38.119Z,8.90
2018-06-01T09:40:06.408Z,12.20
2018-06-01T09:42:34.698Z,8.83
2018-06-01T09:45:02.970Z,7.60
2018-06-01T09:47:31.289Z,9.20
2018-06-01T09:50:00.418Z,6.63
2018-06-01T09:52:28.665Z,9.93
2018-06-01T09:54:57.701Z,6.23
2018-06-01T09:57:26.019Z,8.10
2018-06-01T09:59:54.287Z,6.63
2018-06-01T10:02:23.326Z,6.60
2018-06-01T10:04:51.585Z,8.50
2018-06-01T10:07:20.617Z,5.13
2018-06-01T10:09:54.802Z,5.00
2018-06-01T10:12:23.119Z,3.83
2018-06-01T10:14:51.393Z,6.43
2018-06-01T10:17:19.620Z,6.27
2018-06-01T10:19:47.893Z,5.27
2018-06-01T10:22:16.926Z,5.20
2018-06-01T10:24:45.446Z,5.43
2018-06-01T10:27:13.701Z,3.97
2018-06-01T10:29:41.964Z,3.70
2018-06-01T10:32:10.205Z,4.30
2018-06-01T10:34:38.452Z,7.43
2018-06-01T10:37:06.758Z,5.10
2018-06-01T10:39:35.031Z,2.73
2018-06-01T10:42:03.287Z,2.67
2018-06-01T10:44:32.331Z,5.10
2018-06-01T10:47:01.096Z,2.90
2018-06-01T10:49:29.359Z,2.43
2018-06-01T10:51:57.630Z,2.20
2018-06-01T10:54:26.664Z,2.43
2018-06-01T10:56:54.932Z,8.00
2018-06-01T10:59:23.172Z,3.27
2018-06-01T11:01:52.213Z,3.50
2018-06-01T11:04:20.505Z,2.37
2018-06-01T11:06:48.749Z,4.20
2018-06-01T11:09:17.052Z,3.03
2018-06-01T11:11:45.305Z,3.23
2018-06-01T11:14:13.606Z,5.70
2018-06-01T11:16:41.928Z,2.20
2018-06-01T11:19:10.936Z,2.37
2018-06-01T11:21:39.260Z,4.00
2018-06-01T11:24:07.488Z,2.13
2018-06-01T11:26:35.806Z,5.87
2018-06-01T11:29:04.827Z,3.50
2018-06-01T11:31:33.073Z,1.93
2018-06-01T11:34:01.316Z,1.90
2018-06-01T11:36:29.587Z,3.93
2018-06-01T11:38:58.003Z,2.77
2018-06-01T11:41:26.315Z,4.30
2018-06-01T11:43:55.362Z,4.43
2018-06-01T11:46:23.601Z,1.60
2018-06-01T11:48:52.690Z,1.97
2018-06-01T11:51:21.763Z,17.83
2018-06-01T11:53:50.113Z,4.13
2018-06-01T11:56:18.491Z,2.23
2018-06-01T11:58:46.740Z,3.37
2018-06-01T12:01:15.133Z,6.63
2018-06-01T12:03:43.421Z,7.80
2018-06-01T12:06:11.680Z,5.40
2018-06-01T12:08:39.978Z,4.77
2018-06-01T12:11:08.232Z,9.00
2018-06-01T12:13:36.491Z,3.37
2018-06-01T12:16:04.988Z,4.13
2018-06-01T12:18:33.431Z,2.60
2018-06-01T12:21:02.342Z,3.37
2018-06-01T12:23:30.655Z,3.47
2018-06-01T12:25:59.764Z,5.67
2018-06-01T12:28:28.051Z,5.13
2018-06-01T12:30:56.349Z,6.90
2018-06-01T12:33:25.369Z,7.00
2018-06-01T12:35:53.671Z,4.90
2018-06-01T12:38:21.950Z,5.63
2018-06-01T12:40:50.326Z,5.73
2018-06-01T12:43:18.581Z,5.03
2018-06-01T12:45:47.348Z,2.93
2018-06-01T12:48:16.935Z,2.83
2018-06-01T12:50:45.210Z,7.07
2018-06-01T12:53:13.459Z,4.23
2018-06-01T12:55:41.715Z,3.40
2018-06-01T12:58:09.957Z,6.37
2018-06-01T13:00:38.214Z,3.53
2018-06-01T13:03:07.239Z,6.13
2018-06-01T13:05:35.486Z,3.83
2018-06-01T13:08:04.542Z,6.10
2018-06-01T13:10:32.787Z,7.67
2018-06-01T13:13:01.031Z,6.43
2018-06-01T13:15:30.050Z,3.00
2018-06-01T13:17:58.448Z,2.70
2018-06-01T13:20:26.715Z,4.23
2018-06-01T13:22:54.970Z,4.23
2018-06-01T13:25:23.981Z,3.93
2018-06-01T13:27:52.282Z,2.07
2018-06-01T13:30:20.560Z,4.80
2018-06-01T13:32:49.652Z,2.60
2018-06-01T13:35:17.896Z,3.23
2018-06-01T13:37:46.131Z,1.60
2018-06-01T13:40:14.789Z,3.47
2018-06-01T13:42:43.028Z,3.40
2018-06-01T13:45:11.294Z,3.00
2018-06-01T13:47:39.577Z,2.03
2018-06-01T13:50:08.575Z,2.43
2018-06-01T13:52:36.838Z,2.67
2018-06-01T13:55:06.077Z,2.67
2018-06-01T13:57:35.567Z,3.43
2018-06-01T14:00:03.830Z,2.80
2018-06-01T14:02:32.103Z,3.67
2018-06-01T14:05:00.521Z,2.87
2018-06-01T14:07:28.769Z,1.40
2018-06-01T14:09:57.054Z,4.30
2018-06-01T14:12:25.301Z,3.20
2018-06-01T14:14:53.627Z,6.53
2018-06-01T14:17:21.871Z,1.40
2018-06-01T14:19:50.125Z,2.53
2018-06-01T14:22:19.153Z,1.37
2018-06-01T14:24:48.293Z,1.40
2018-06-01T14:27:16.558Z,2.23
2018-06-01T14:29:44.818Z,3.67
2018-06-01T14:32:13.065Z,0.60
2018-06-01T14:34:41.312Z,0.73
2018-06-01T14:37:10.391Z,2.93
2018-06-01T14:39:38.634Z,0.73
2018-06-01T14:42:07.128Z,1.03
2018-06-01T14:44:35.482Z,0.50
2018-06-01T14:47:04.755Z,0.60
2018-06-01T14:49:32.985Z,0.70
2018-06-01T14:52:01.232Z,4.53
2018-06-01T14:54:29.572Z,0.67
2018-06-01T14:56:57.793Z,0.50
2018-06-01T14:59:26.253Z,0.90
2018-06-01T15:01:54.657Z,1.53
2018-06-01T15:04:22.899Z,0.63
2018-06-01T15:06:51.168Z,0.63
2018-06-01T15:09:19.422Z,0.70
2018-06-01T15:11:48.430Z,6.37
2018-06-01T15:14:16.694Z,1.10
2018-06-01T15:16:45.714Z,1.17
2018-06-01T15:19:14.185Z,0.70
2018-06-01T15:21:42.451Z,0.50
2018-06-01T15:24:11.491Z,0.60
2018-06-01T15:26:39.742Z,0.50
2018-06-01T15:29:07.995Z,1.23
2018-06-01T15:31:37.049Z,1.40
2018-06-01T15:34:05.306Z,1.50
2018-06-01T15:36:33.555Z,1.00
2018-06-01T15:39:01.823Z,4.40
2018-06-01T15:41:30.056Z,0.60
2018-06-01T15:43:58.360Z,2.30
2018-06-01T15:46:27.410Z,0.70
2018-06-01T15:48:55.692Z,0.93
2018-06-01T15:51:24.940Z,0.80
2018-06-01T15:53:53.982Z,0.67
2018-06-01T15:56:22.265Z,1.83
2018-06-01T15:58:50.550Z,0.57
2018-06-01T16:01:18.806Z,2.10
2018-06-01T16:03:47.044Z,4.17
2018-06-01T16:06:15.297Z,0.97
2018-06-01T16:08:44.337Z,1.37
2018-06-01T16:11:12.616Z,0.70
2018-06-01T16:13:41.005Z,1.27
2018-06-01T16:16:09.299Z,1.00
2018-06-01T16:18:37.560Z,0.70
2018-06-01T16:21:05.827Z,1.80
2018-06-01T16:23:34.078Z,1.17
2018-06-01T16:26:02.341Z,0.80
2018-06-01T16:28:30.579Z,4.20
2018-06-01T16:30:58.852Z,1.70
2018-06-01T16:33:27.117Z,2.20
2018-06-01T16:35:56.154Z,0.60
2018-06-01T16:38:25.877Z,0.70
2018-06-01T16:40:54.139Z,1.43
2018-06-01T16:43:23.158Z,0.60
2018-06-01T16:45:51.457Z,0.50
2018-06-01T16:48:19.840Z,1.67
2018-06-01T16:50:48.092Z,0.50
2018-06-01T16:53:16.343Z,0.60
2018-06-01T16:55:45.401Z,0.90
2018-06-01T16:58:13.645Z,0.50
2018-06-01T17:00:41.890Z,0.97
2018-06-01T17:03:10.150Z,0.80
2018-06-01T17:05:39.168Z,3.67
2018-06-01T17:08:07.497Z,2.47
2018-06-01T17:10:35.717Z,0.50
2018-06-01T17:13:03.990Z,0.53
2018-06-01T17:15:33.037Z,1.10
2018-06-01T17:18:01.299Z,0.40
2018-06-01T17:20:29.579Z,0.50
2018-06-01T17:22:57.826Z,0.47
2018-06-01T17:25:26.108Z,0.60
2018-06-01T17:27:54.392Z,1.60
2018-06-01T17:30:22.639Z,0.70
2018-06-01T17:32:50.992Z,2.00
2018-06-01T17:35:19.246Z,3.07
2018-06-01T17:37:47.528Z,0.50
2018-06-01T17:40:15.766Z,0.50
2018-06-01T17:42:44.779Z,0.40
2018-06-01T17:45:13.025Z,0.60
2018-06-01T17:47:41.273Z,0.50
2018-06-01T17:50:10.300Z,0.50
2018-06-01T17:52:38.558Z,0.50
2018-06-01T17:55:06.805Z,0.50
2018-06-01T17:57:35.046Z,0.63
2018-06-01T18:00:03.345Z,0.40
2018-06-01T18:02:31.577Z,0.50
2018-06-01T18:04:59.844Z,0.40
2018-06-01T18:07:28.112Z,0.40
2018-06-01T18:09:57.121Z,0.40
2018-06-01T18:12:25.377Z,0.57
2018-06-01T18:14:54.394Z,0.60
2018-06-01T18:17:22.657Z,0.87
2018-06-01T18:19:50.919Z,2.30
2018-06-01T18:22:19.936Z,0.70
2018-06-01T18:24:48.183Z,0.70
2018-06-01T18:27:17.216Z,0.70
2018-06-01T18:29:45.465Z,0.47
2018-06-01T18:32:13.770Z,0.50
2018-06-01T18:34:42.091Z,0.60
2018-06-01T18:37:10.285Z,0.57
2018-06-01T18:39:39.349Z,0.80
2018-06-01T18:42:07.595Z,0.90
2018-06-01T18:44:35.844Z,7.00
2018-06-01T18:47:04.099Z,2.80
2018-06-01T18:49:33.110Z,0.60
2018-06-01T18:52:02.120Z,1.03
2018-06-01T18:54:30.397Z,0.70
2018-06-01T18:56:58.629Z,0.60
2018-06-01T18:59:27.645Z,0.73
2018-06-01T19:01:55.922Z,1.00
2018-06-01T19:04:24.191Z,0.80
2018-06-01T19:06:53.195Z,0.83
2018-06-01T19:09:21.439Z,0.87
2018-06-01T19:11:49.703Z,0.77
2018-06-01T19:14:17.929Z,7.10
2018-06-01T19:16:46.179Z,0.93
2018-06-01T19:19:15.189Z,0.80
2018-06-01T19:21:43.433Z,0.80
2018-06-01T19:24:12.460Z,1.37
2018-06-01T19:26:40.730Z,1.20
2018-06-01T19:29:08.995Z,0.90
2018-06-01T19:31:38.017Z,1.10
2018-06-01T19:34:06.271Z,1.40
2018-06-01T19:36:35.289Z,2.90
2018-06-01T19:39:03.541Z,1.57
2018-06-01T19:41:31.805Z,1.10
2018-06-01T19:44:00.834Z,1.20
2018-06-01T19:46:29.081Z,1.63
2018-06-01T19:48:58.095Z,1.20
2018-06-01T19:51:26.336Z,2.10
2018-06-01T19:53:54.684Z,9.00
2018-06-01T19:56:22.933Z,2.17
2018-06-01T19:58:51.181Z,1.67
2018-06-01T20:01:20.226Z,1.43
2018-06-01T20:03:48.493Z,2.20
2018-06-01T20:06:16.755Z,2.40
2018-06-01T20:08:45.035Z,2.90
2018-06-01T20:11:13.269Z,4.10
2018-06-01T20:13:42.313Z,3.50
2018-06-01T20:16:10.578Z,2.07
2018-06-01T20:18:38.835Z,2.40
2018-06-01T20:21:07.926Z,1.70
2018-06-01T20:23:36.183Z,3.77
2018-06-01T20:26:05.208Z,2.40
2018-06-01T20:28:33.460Z,7.30
2018-06-01T20:31:01.725Z,7.40
2018-06-01T20:33:30.751Z,3.93
2018-06-01T20:35:58.994Z,6.40
2018-06-01T20:38:28.202Z,4.13
2018-06-01T20:40:57.219Z,5.80
2018-06-01T20:43:25.497Z,4.43
2018-06-01T20:45:54.546Z,6.63
2018-06-01T20:48:22.804Z,5.33
2018-06-01T20:50:51.068Z,5.90
2018-06-01T20:53:20.084Z,4.73
2018-06-01T20:55:48.328Z,8.23
2018-06-01T20:58:16.598Z,4.43
2018-06-01T21:00:44.863Z,6.47
2018-06-01T21:03:13.132Z,7.70
2018-06-01T21:05:41.378Z,4.90
2018-06-01T21:08:10.385Z,6.50
2018-06-01T21:10:38.638Z,5.30
2018-06-01T21:13:07.656Z,8.50
2018-06-01T21:15:35.982Z,6.77
2018-06-01T21:18:04.262Z,5.50
2018-06-01T21:20:32.511Z,6.87
2018-06-01T21:23:00.841Z,5.70
2018-06-01T21:25:29.090Z,7.80
2018-06-01T21:27:57.331Z,7.90
2018-06-01T21:30:25.576Z,6.37
2018-06-01T21:32:54.595Z,9.20
2018-06-01T21:35:22.862Z,10.23
2018-06-01T21:37:51.124Z,7.53
2018-06-01T21:40:20.381Z,6.93
2018-06-01T21:42:48.610Z,8.90
2018-06-01T21:45:16.854Z,6.63
2018-06-01T21:47:45.115Z,9.40
2018-06-01T21:50:13.409Z,6.53
2018-06-01T21:52:41.637Z,6.83
2018-06-01T21:55:09.910Z,7.40
2018-06-01T21:57:38.155Z,5.57
2018-06-01T22:00:07.173Z,7.57
2018-06-01T22:02:35.421Z,7.53
2018-06-01T22:05:03.715Z,8.87
2018-06-01T22:07:31.979Z,6.57
2018-06-01T22:10:00.991Z,5.53
2018-06-01T22:12:29.254Z,6.33
2018-06-01T22:14:58.254Z,14.20
2018-06-01T22:17:26.509Z,9.80
2018-06-01T22:19:55.537Z,9.00
2018-06-01T22:22:23.778Z,10.67
2018-06-01T22:24:52.807Z,6.57
2018-06-01T22:27:21.059Z,8.90
2018-06-01T22:29:49.327Z,10.53
2018-06-01T22:32:18.348Z,9.10
2018-06-01T22:34:46.632Z,8.87
2018-06-01T22:37:14.880Z,8.23
2018-06-01T22:39:43.203Z,8.93
2018-06-01T22:42:11.476Z,10.83
2018-06-01T22:44:39.717Z,13.13
2018-06-01T22:47:08.021Z,8.97
2018-06-01T22:49:36.297Z,11.13
2018-06-01T22:52:04.551Z,11.10
2018-06-01T22:54:32.800Z,20.03
2018-06-01T22:57:01.822Z,11.97
2018-06-01T22:59:30.081Z,13.70
2018-06-01T23:01:59.098Z,15.80
2018-06-01T23:04:27.284Z,11.80
2018-06-01T23:06:55.542Z,14.10
2018-06-01T23:09:23.797Z,9.20
2018-06-01T23:11:52.804Z,12.80
2018-06-01T23:14:21.725Z,11.50
2018-06-01T23:16:49.922Z,9.50
2018-06-01T23:19:18.948Z,10.33
2018-06-01T23:21:47.206Z,12.67
2018-06-01T23:24:15.455Z,8.30
2018-06-01T23:26:43.709Z,9.10
2018-06-01T23:29:11.955Z,9.37
2018-06-01T23:31:40.961Z,6.80
2018-06-01T23:34:09.193Z,8.50
2018-06-01T23:36:37.448Z,11.97
2018-06-01T23:39:05.701Z,8.90
2018-06-01T23:41:33.957Z,9.50
2018-06-01T23:44:02.202Z,7.43
2018-06-01T23:46:31.211Z,9.40
2018-06-01T23:49:00.215Z,9.77
2018-06-01T23:51:28.474Z,10.80
2018-06-01T23:53:57.487Z,9.60
2018-06-01T23:56:25.741Z,8.50
2018-06-01T23:58:54.760Z,7.90
